createdAt,value
2022-11-25T00:03:51.160Z,43.38
2022-11-25T00:08:39.361Z,39.47
2022-11-25T00:13:24.460Z,41.95
2022-11-25T00:18:09.931Z,38.42
2022-11-25T00:22:54.999Z,43.97
2022-11-25T00:27:42.990Z,42.35
2022-11-25T00:32:28.137Z,37.08
2022-11-25T00:37:13.508Z,48.85
2022-11-25T00:42:11.195Z,40.35
2022-11-25T00:46:59.184Z,39.90
2022-11-25T00:51:44.287Z,39.47
2022-11-25T00:56:30.544Z,41.63
2022-11-25T01:01:15.733Z,34.88
2022-11-25T01:06:06.943Z,32.63
2022-11-25T01:10:51.974Z,25.92
2022-11-25T01:15:39.867Z,31.77
2022-11-25T01:20:25.114Z,25.83
2022-11-25T01:25:13.303Z,34.33
2022-11-25T01:29:58.450Z,34.80
2022-11-25T01:34:43.773Z,28.17
2022-11-25T01:39:32.882Z,43.50
2022-11-25T01:44:23.691Z,44.40
2022-11-25T01:49:15.459Z,44.45
2022-11-25T01:58:50.990Z,44.88
2022-11-25T02:03:43.352Z,46.42
2022-11-25T02:13:15.117Z,49.15
2022-11-25T02:18:00.369Z,46.13
2022-11-25T02:23:00.127Z,42.70
2022-11-25T02:27:50.833Z,32.03
2022-11-25T02:32:36.199Z,24.90
2022-11-25T02:37:24.414Z,29.98
2022-11-25T02:42:11.133Z,35.60
2022-11-25T02:46:59.124Z,32.67
2022-11-25T02:51:46.682Z,30.90
2022-11-25T02:56:34.626Z,32.55
2022-11-25T03:01:19.837Z,30.48
2022-11-25T03:06:08.242Z,34.03
2022-11-25T03:10:53.429Z,37.17
2022-11-25T03:15:39.428Z,32.50
2022-11-25T03:20:24.595Z,40.75
2022-11-25T03:25:13.672Z,44.63
2022-11-25T03:29:58.829Z,44.30
2022-11-25T03:34:44.270Z,45.83
2022-11-25T03:39:29.283Z,33.95
2022-11-25T03:44:17.423Z,37.00
2022-11-25T03:49:02.432Z,34.85
2022-11-25T03:53:47.799Z,35.83
2022-11-25T03:58:32.827Z,32.20
2022-11-25T04:03:21.851Z,33.33
2022-11-25T04:08:07.057Z,27.20
2022-11-25T04:12:52.779Z,34.58
2022-11-25T04:17:37.975Z,25.35
2022-11-25T04:22:25.929Z,24.23
2022-11-25T04:27:10.987Z,20.63
2022-11-25T04:31:56.376Z,22.70
2022-11-25T04:36:41.431Z,22.65
2022-11-25T04:41:29.403Z,22.92
2022-11-25T04:46:18.005Z,16.90
2022-11-25T04:51:03.405Z,21.00
2022-11-25T04:55:48.407Z,22.98
2022-11-25T05:00:36.399Z,22.23
2022-11-25T05:05:21.683Z,20.38
2022-11-25T05:10:09.239Z,19.85
2022-11-25T05:14:54.607Z,22.73
2022-11-25T05:19:42.651Z,18.80
2022-11-25T05:24:27.938Z,17.13
2022-11-25T05:29:13.572Z,25.58
2022-11-25T05:33:58.591Z,21.30
2022-11-25T05:38:46.880Z,18.63
2022-11-25T05:43:32.026Z,23.52
2022-11-25T05:48:17.360Z,21.40
2022-11-25T05:53:03.077Z,19.00
2022-11-25T05:57:51.010Z,29.92
2022-11-25T06:02:36.170Z,22.30
2022-11-25T06:07:21.754Z,26.55
2022-11-25T06:12:07.319Z,27.42
2022-11-25T06:16:55.290Z,20.77
2022-11-25T06:21:40.411Z,20.95
2022-11-25T06:26:28.838Z,22.70
2022-11-25T06:31:16.434Z,25.67
2022-11-25T06:36:06.408Z,22.83
2022-11-25T06:40:54.146Z,20.13
2022-11-25T06:45:41.869Z,22.02
2022-11-25T06:50:27.061Z,25.67
2022-11-25T06:55:15.214Z,24.52
2022-11-25T07:00:00.309Z,16.85
2022-11-25T07:04:46.286Z,18.95
2022-11-25T07:09:31.311Z,19.42
2022-11-25T07:14:20.091Z,20.75
2022-11-25T07:19:06.034Z,24.50
2022-11-25T07:23:52.634Z,14.57
2022-11-25T07:28:38.465Z,19.98
2022-11-25T07:33:26.492Z,13.70
2022-11-25T07:38:11.652Z,20.48
2022-11-25T07:42:57.837Z,20.85
2022-11-25T07:47:42.923Z,24.48
2022-11-25T07:52:30.894Z,24.95
2022-11-25T07:57:16.282Z,25.92
2022-11-25T08:02:01.480Z,14.07
2022-11-25T08:06:48.997Z,12.23
2022-11-25T08:11:36.663Z,13.55
2022-11-25T08:16:24.505Z,11.68
2022-11-25T08:21:12.806Z,13.48
2022-11-25T08:25:58.276Z,14.88
2022-11-25T08:30:45.901Z,13.50
2022-11-25T08:35:31.267Z,14.35
2022-11-25T08:40:17.125Z,11.25
2022-11-25T08:45:02.576Z,14.43
2022-11-25T08:49:53.861Z,28.20
2022-11-25T08:54:39.404Z,25.70
2022-11-25T08:59:25.962Z,25.63
2022-11-25T09:04:11.192Z,19.48
2022-11-25T09:09:02.101Z,17.42
2022-11-25T09:13:47.228Z,16.95
2022-11-25T09:18:32.946Z,21.35
2022-11-25T09:23:18.001Z,20.33
2022-11-25T09:28:06.999Z,23.20
2022-11-25T09:32:53.689Z,17.38
2022-11-25T09:37:39.187Z,20.55
2022-11-25T09:42:46.691Z,20.63
2022-11-25T09:47:47.014Z,19.70
2022-11-25T09:52:40.650Z,17.23
2022-11-25T10:02:20.578Z,21.20
2022-11-25T10:07:16.668Z,22.00
2022-11-25T10:12:06.515Z,24.48
2022-11-25T10:16:55.096Z,17.38
2022-11-25T10:21:40.579Z,12.70
2022-11-25T10:26:38.750Z,14.85
2022-11-25T10:31:28.817Z,11.82
2022-11-25T10:36:18.285Z,15.23
2022-11-25T10:41:06.105Z,20.35
2022-11-25T10:46:01.802Z,21.17
2022-11-25T10:51:06.044Z,21.23
2022-11-25T10:56:03.799Z,18.25
2022-11-25T11:00:48.811Z,20.83
2022-11-25T11:05:37.017Z,18.20
2022-11-25T11:10:24.794Z,23.90
2022-11-25T11:15:22.471Z,22.08
2022-11-25T11:20:22.347Z,32.17
2022-11-25T11:25:31.981Z,27.90
2022-11-25T11:30:21.158Z,29.63
2022-11-25T11:35:15.257Z,22.33
2022-11-25T11:40:15.730Z,22.48
2022-11-25T11:45:15.803Z,24.27
2022-11-25T11:50:30.002Z,24.98
2022-11-25T11:55:30.468Z,18.98
2022-11-25T12:00:30.442Z,15.77
2022-11-25T12:05:22.152Z,18.15
2022-11-25T12:10:13.685Z,25.63
2022-11-25T12:15:08.736Z,15.20
2022-11-25T12:20:04.484Z,16.05
2022-11-25T12:24:54.385Z,18.88
2022-11-25T12:29:45.463Z,16.25
2022-11-25T12:34:41.214Z,15.82
2022-11-25T12:39:37.291Z,15.15
2022-11-25T12:44:25.927Z,16.58
2022-11-25T12:49:20.167Z,11.90
2022-11-25T12:54:17.253Z,17.48
2022-11-25T12:59:25.777Z,12.60
2022-11-25T13:04:35.616Z,18.77
2022-11-25T13:09:40.892Z,10.63
2022-11-25T13:14:43.449Z,14.48
2022-11-25T13:19:29.349Z,16.25
2022-11-25T13:24:31.475Z,16.75
2022-11-25T13:34:31.960Z,22.48
2022-11-25T13:39:19.564Z,14.55
2022-11-25T13:44:10.291Z,20.80
2022-11-25T13:48:56.007Z,15.25
2022-11-25T13:53:44.170Z,17.83
2022-11-25T13:58:36.157Z,15.88
2022-11-25T14:03:47.778Z,12.18
2022-11-25T14:08:49.125Z,12.23
2022-11-25T14:14:00.635Z,9.53
2022-11-25T14:19:35.023Z,7.85
2022-11-25T14:24:21.122Z,9.75
2022-11-25T14:29:11.709Z,12.93
2022-11-25T14:34:01.216Z,12.30
2022-11-25T14:38:51.282Z,10.15
2022-11-25T14:43:43.920Z,8.10
2022-11-25T14:48:29.376Z,9.00
2022-11-25T14:53:15.472Z,12.68
2022-11-25T14:58:00.888Z,8.48
2022-11-25T15:02:57.429Z,9.55
2022-11-25T15:07:45.236Z,9.25
2022-11-25T15:12:38.364Z,8.57
2022-11-25T15:17:31.380Z,7.72
2022-11-25T15:22:24.558Z,10.10
2022-11-25T15:27:17.649Z,9.88
2022-11-25T15:32:03.841Z,9.45
2022-11-25T15:36:54.178Z,9.38
2022-11-25T15:41:44.540Z,10.35
2022-11-25T15:46:30.957Z,10.65
2022-11-25T15:51:27.469Z,9.20
2022-11-25T15:56:18.214Z,11.55
2022-11-25T16:01:08.370Z,8.45
2022-11-25T16:05:57.729Z,7.70
2022-11-25T16:10:53.311Z,11.38
2022-11-25T16:15:48.831Z,16.13
2022-11-25T16:20:36.496Z,13.38
2022-11-25T16:25:22.020Z,16.98
2022-11-25T16:30:21.397Z,17.40
2022-11-25T16:35:16.118Z,11.88
2022-11-25T16:40:04.169Z,16.23
2022-11-25T16:44:51.432Z,22.10
2022-11-25T16:49:37.012Z,22.15
2022-11-25T16:54:23.222Z,12.15
2022-11-25T16:59:13.022Z,12.57
2022-11-25T17:03:58.265Z,20.30
2022-11-25T17:08:44.588Z,24.48
2022-11-25T17:13:29.708Z,24.88
2022-11-25T17:18:19.850Z,28.58
2022-11-25T17:23:04.921Z,31.00
2022-11-25T17:27:51.299Z,38.78
2022-11-25T17:32:37.689Z,29.55
2022-11-25T17:37:28.817Z,36.17
2022-11-25T17:42:16.780Z,64.28
2022-11-25T17:47:02.151Z,72.85
2022-11-25T17:51:47.543Z,59.80
2022-11-25T17:56:35.533Z,48.25
2022-11-25T18:01:21.079Z,48.10
2022-11-25T18:06:06.740Z,49.78
2022-11-25T18:10:52.504Z,45.58
2022-11-25T18:15:40.309Z,49.42
2022-11-25T18:20:29.925Z,48.00
2022-11-25T18:25:19.716Z,47.75
2022-11-25T18:30:07.461Z,60.92
2022-11-25T18:35:17.512Z,42.60
2022-11-25T18:40:03.523Z,51.80
2022-11-25T18:44:48.756Z,54.33
2022-11-25T18:49:34.386Z,68.82
2022-11-25T18:54:22.042Z,86.90
2022-11-25T18:59:09.365Z,72.28
2022-11-25T19:03:55.601Z,70.10
2022-11-25T19:08:40.731Z,68.20
2022-11-25T19:13:32.882Z,67.45
2022-11-25T19:18:25.972Z,67.07
2022-11-25T19:23:22.790Z,85.65
2022-11-25T19:28:08.264Z,72.72
2022-11-25T19:33:01.081Z,60.67
2022-11-25T19:37:46.616Z,69.85
2022-11-25T19:42:31.929Z,71.70
2022-11-25T19:47:20.741Z,70.75
2022-11-25T19:52:08.691Z,86.70
2022-11-25T19:56:54.010Z,84.05
2022-11-25T20:01:43.021Z,76.82
2022-11-25T20:06:30.444Z,80.95
2022-11-25T20:11:20.211Z,55.85
2022-11-25T20:16:05.317Z,129.25
2022-11-25T20:20:56.095Z,78.70
2022-11-25T20:25:45.809Z,71.70
2022-11-25T20:30:33.827Z,98.90
2022-11-25T20:35:19.450Z,91.38
2022-11-25T20:40:05.014Z,72.53
2022-11-25T20:44:54.632Z,43.10
2022-11-25T20:49:46.065Z,29.55
2022-11-25T20:54:33.473Z,35.25
2022-11-25T20:59:23.046Z,41.50
2022-11-25T21:04:08.458Z,34.63
2022-11-25T21:08:58.332Z,34.65
2022-11-25T21:13:43.802Z,50.35
2022-11-25T21:18:28.931Z,42.05
2022-11-25T21:23:21.159Z,23.67
2022-11-25T21:28:08.846Z,28.98
2022-11-25T21:32:56.852Z,29.40
2022-11-25T21:37:43.550Z,26.25
2022-11-25T21:42:29.739Z,32.35
2022-11-25T21:47:20.812Z,31.90
2022-11-25T21:52:06.352Z,21.23
2022-11-25T21:56:52.309Z,26.10
2022-11-25T22:01:37.730Z,41.50
2022-11-25T22:06:27.929Z,60.47
2022-11-25T22:11:17.042Z,58.20
2022-11-25T22:16:02.644Z,57.65
2022-11-25T22:20:53.295Z,120.60
2022-11-25T22:25:41.350Z,112.10
2022-11-25T22:30:27.388Z,86.25
2022-11-25T22:35:17.815Z,153.73
2022-11-25T22:40:03.244Z,374.42
2022-11-25T22:44:52.715Z,227.57
2022-11-25T22:49:43.177Z,185.68
2022-11-25T22:54:28.922Z,116.55
2022-11-25T22:59:14.332Z,148.60
2022-11-25T23:04:03.240Z,138.32
2022-11-25T23:08:48.687Z,92.63
2022-11-25T23:13:33.924Z,87.85
2022-11-25T23:18:27.483Z,41.33
2022-11-25T23:23:19.324Z,109.57
2022-11-25T23:32:54.269Z,95.70
2022-11-25T23:37:39.729Z,121.25
2022-11-25T23:42:27.448Z,152.82
2022-11-25T23:47:19.705Z,153.55
2022-11-25T23:52:08.249Z,121.95
2022-11-25T23:56:53.871Z,106.00
